Time;durP1;ratioP1;P1;durP2;ratioP2;P2;SDS_P1;SDS_P2;PMS_P1;PMS_P2;Temp;Humidity;BMP_temperature;BMP_pressure;BME280_temperature;BME280_humidity;BME280_pressure;Samples;Min_cycle;Max_cycle;Signal;HPM_P1;HPM_P2
2020/12/25 00:01:00;;;;;;;8.90;5.40;;;;;;;2.71;100.00;97906.01;3649322;80;44007;-21
2020/12/25 00:06:08;;;;;;;11.27;5.90;;;;;;;2.72;100.00;97907.70;3679079;80;43352;-21
2020/12/25 00:11:14;;;;;;;10.30;5.63;;;;;;;2.71;100.00;97913.13;3654436;79;44733;-21
2020/12/25 00:16:26;;;;;;;8.50;5.27;;;;;;;2.70;100.00;97908.80;3652025;79;44925;-21
2020/12/25 00:21:33;;;;;;;10.40;5.50;;;;;;;2.62;100.00;97916.06;3640040;80;43474;-21
2020/12/25 00:26:38;;;;;;;11.00;6.30;;;;;;;2.54;100.00;97914.02;3689419;80;43327;-21
2020/12/25 00:31:45;;;;;;;11.13;5.77;;;;;;;2.58;100.00;97912.81;3635713;80;44059;-21
2020/12/25 00:36:51;;;;;;;11.33;5.63;;;;;;;2.57;100.00;97919.09;3689649;80;44487;-21
2020/12/25 00:41:57;;;;;;;11.60;6.13;;;;;;;2.55;100.00;97918.84;3649960;79;43678;-21
2020/12/25 00:47:03;;;;;;;10.13;6.10;;;;;;;2.52;100.00;97916.45;3644529;79;44150;-21
2020/12/25 00:52:10;;;;;;;10.80;6.30;;;;;;;2.49;100.00;97918.02;3685442;80;43669;-21
2020/12/25 00:57:17;;;;;;;11.67;6.37;;;;;;;2.51;100.00;97917.41;3634273;80;44059;-21
2020/12/25 01:02:29;;;;;;;12.40;6.97;;;;;;;2.51;100.00;97924.06;3616580;82;26534;-21
2020/12/25 01:07:35;;;;;;;10.47;6.37;;;;;;;2.48;100.00;97921.64;3624402;80;44102;-21
2020/12/25 01:12:40;;;;;;;13.00;6.40;;;;;;;2.47;100.00;97926.09;3563127;83;44038;-22
2020/12/25 01:17:46;;;;;;;11.20;6.33;;;;;;;2.50;100.00;97935.66;3537673;82;44092;-21
2020/12/25 01:22:52;;;;;;;11.13;6.50;;;;;;;2.57;100.00;97939.52;3620571;80;43307;-21
2020/12/25 01:27:58;;;;;;;11.77;6.30;;;;;;;2.49;100.00;97944.61;3622123;80;43013;-21
2020/12/25 01:33:03;;;;;;;12.47;6.53;;;;;;;2.57;100.00;97952.34;3619785;82;44049;-21
2020/12/25 01:38:09;;;;;;;13.23;6.97;;;;;;;2.55;100.00;97967.56;3628525;80;43392;-21
2020/12/25 01:43:15;;;;;;;11.57;6.77;;;;;;;2.59;100.00;97968.16;3619971;82;43707;-21
2020/12/25 01:48:21;;;;;;;12.33;7.23;;;;;;;2.59;100.00;97962.34;3630094;80;43408;-21
2020/12/25 01:53:28;;;;;;;11.83;6.00;;;;;;;2.59;100.00;97976.14;3619549;82;44003;-21
2020/12/25 01:58:36;;;;;;;12.70;6.53;;;;;;;2.59;100.00;97985.45;3618849;80;44063;-21
2020/12/25 02:03:43;;;;;;;11.43;6.70;;;;;;;2.54;100.00;97983.16;3690316;79;44109;-22
2020/12/25 02:08:48;;;;;;;14.10;7.17;;;;;;;2.46;100.00;97985.59;3694746;79;44089;-22
2020/12/25 02:13:55;;;;;;;12.63;6.60;;;;;;;2.33;100.00;97983.52;3689545;79;44091;-22
2020/12/25 02:19:01;;;;;;;12.63;6.90;;;;;;;2.25;100.00;97990.27;3695437;79;42798;-22
2020/12/25 02:24:08;;;;;;;12.97;7.00;;;;;;;2.24;100.00;97995.21;3619298;80;44030;-22
2020/12/25 02:29:14;;;;;;;13.93;6.87;;;;;;;2.21;100.00;98003.91;3690341;79;43713;-22
2020/12/25 02:34:20;;;;;;;15.70;8.10;;;;;;;2.23;100.00;98017.47;3689315;79;43652;-22
2020/12/25 02:39:26;;;;;;;14.80;8.10;;;;;;;2.23;100.00;98009.96;3684284;78;44034;-22
2020/12/25 02:44:31;;;;;;;15.83;8.83;;;;;;;2.36;100.00;98009.38;3689329;79;44026;-22
2020/12/25 02:49:38;;;;;;;16.23;8.80;;;;;;;2.37;100.00;98017.72;3687494;79;44013;-22
2020/12/25 02:54:44;;;;;;;15.70;9.10;;;;;;;2.39;100.00;98014.46;3690409;78;43404;-22
2020/12/25 02:59:50;;;;;;;15.93;9.07;;;;;;;2.33;100.00;98016.25;3691382;79;44074;-22
2020/12/25 03:04:55;;;;;;;15.03;8.53;;;;;;;2.33;100.00;98016.25;3692578;79;44061;-22
2020/12/25 03:10:01;;;;;;;14.87;7.70;;;;;;;2.41;100.00;98021.81;3690488;79;44650;-22
2020/12/25 03:15:07;;;;;;;14.40;7.97;;;;;;;2.39;100.00;98024.23;3693498;79;44003;-22
2020/12/25 03:20:13;;;;;;;14.90;7.63;;;;;;;2.40;100.00;98027.26;3623547;80;44672;-22
2020/12/25 03:25:19;;;;;;;11.47;6.43;;;;;;;2.37;100.00;98031.02;3627069;80;43378;-22
2020/12/25 03:30:25;;;;;;;11.73;6.43;;;;;;;2.31;100.00;98034.13;3621397;81;43065;-22
2020/12/25 03:35:30;;;;;;;11.37;6.47;;;;;;;2.34;100.00;98028.58;3621805;82;44142;-22
2020/12/25 03:40:36;;;;;;;9.87;5.67;;;;;;;2.27;100.00;98035.34;3622341;81;43042;-22
2020/12/25 03:45:42;;;;;;;5.87;3.70;;;;;;;2.23;100.00;98049.83;3621916;80;43470;-23
2020/12/25 03:50:48;;;;;;;7.57;3.87;;;;;;;1.89;100.00;98055.88;3624099;81;44016;-23
2020/12/25 03:55:54;;;;;;;5.10;3.23;;;;;;;1.87;100.00;98058.30;3615726;80;44192;-23
2020/12/25 04:00:59;;;;;;;6.40;3.20;;;;;;;1.84;100.00;98072.17;3652678;79;43274;-23
2020/12/25 04:06:05;;;;;;;4.57;2.87;;;;;;;1.71;100.00;98070.06;3688569;80;43375;-23
2020/12/25 04:11:11;;;;;;;4.83;2.73;;;;;;;1.64;100.00;98069.70;3650801;79;44121;-23
2020/12/25 04:16:17;;;;;;;3.83;2.90;;;;;;;1.52;100.00;98074.58;3649008;80;44052;-23
2020/12/25 04:21:24;;;;;;;6.43;3.13;;;;;;;1.43;100.00;98081.87;3689567;80;43397;-23
2020/12/25 04:26:30;;;;;;;5.77;3.03;;;;;;;1.42;100.00;98083.69;3651378;79;44142;-21
2020/12/25 04:31:36;;;;;;;5.13;3.43;;;;;;;1.38;100.00;98094.16;3646435;79;44069;-21
2020/12/25 04:36:41;;;;;;;7.23;3.43;;;;;;;1.46;100.00;98099.77;3653907;80;44027;-21
2020/12/25 04:41:47;;;;;;;6.50;4.13;;;;;;;1.50;100.00;98102.55;3633980;80;44029;-23
2020/12/25 04:46:53;;;;;;;11.53;4.83;;;;;;;1.54;100.00;98104.50;3689421;80;44137;-23
2020/12/25 04:51:59;;;;;;;14.53;6.60;;;;;;;1.66;100.00;98122.19;3703409;80;43445;-25
2020/12/25 04:57:05;;;;;;;13.57;7.00;;;;;;;1.69;100.00;98121.97;3655065;80;44090;-23
2020/12/25 05:02:11;;;;;;;11.33;6.60;;;;;;;1.75;100.00;98122.00;3654498;79;43470;-23
2020/12/25 05:07:17;;;;;;;12.47;6.70;;;;;;;1.74;100.00;98134.08;3594034;81;44433;-23
2020/12/25 05:12:23;;;;;;;12.50;7.20;;;;;;;1.76;100.00;98134.32;3621398;81;44049;-23
2020/12/25 05:17:31;;;;;;;15.10;7.57;;;;;;;1.81;100.00;98138.83;3640089;80;43706;-23
2020/12/25 05:22:37;;;;;;;12.57;7.50;;;;;;;1.84;100.00;98143.06;3628306;81;44006;-23
2020/12/25 05:27:45;;;;;;;11.40;6.20;;;;;;;1.88;100.00;98151.64;3639299;80;43392;-23
2020/12/25 05:32:52;;;;;;;12.60;6.40;;;;;;;1.85;100.00;98157.55;3586191;80;43076;-22
2020/12/25 05:38:00;;;;;;;11.67;5.57;;;;;;;1.85;100.00;98168.17;3539701;82;44465;-22
2020/12/25 05:43:07;;;;;;;9.60;5.53;;;;;;;1.79;100.00;98173.95;3585562;82;43408;-22
2020/12/25 05:48:14;;;;;;;10.73;5.63;;;;;;;1.73;100.00;98178.36;3636526;80;44053;-22
2020/12/25 05:53:20;;;;;;;8.77;5.23;;;;;;;1.74;100.00;98189.36;3585967;81;43739;-22
2020/12/25 05:58:29;;;;;;;10.47;5.20;;;;;;;1.73;100.00;98213.38;3646332;79;43714;-22
2020/12/25 06:03:36;;;;;;;7.07;4.40;;;;;;;1.65;100.00;98216.09;3694713;80;44078;-21
2020/12/25 06:08:58;;;;;;;6.07;3.50;;;;;;;1.57;100.00;98221.60;3767212;77;43652;-21
2020/12/25 06:14:04;;;;;;;6.00;2.90;;;;;;;1.51;100.00;98238.33;3777006;78;44024;-21
2020/12/25 06:19:14;;;;;;;5.60;2.70;;;;;;;1.45;100.00;98248.06;3702374;80;44047;-21
2020/12/25 06:24:22;;;;;;;5.97;2.33;;;;;;;1.42;100.00;98261.55;3776072;78;43565;-21
2020/12/25 06:29:28;;;;;;;3.37;2.10;;;;;;;1.38;100.00;98274.65;3767735;77;44013;-21
2020/12/25 06:34:45;;;;;;;3.90;1.80;;;;;;;1.28;100.00;98288.19;3776631;77;44050;-20
2020/12/25 06:39:52;;;;;;;7.13;2.03;;;;;;;1.26;100.00;98302.91;3756125;77;43390;-20
2020/12/25 06:44:59;;;;;;;3.43;1.63;;;;;;;1.23;100.00;98309.73;3775346;77;44428;-20
2020/12/25 06:50:10;;;;;;;4.77;1.80;;;;;;;1.19;100.00;98327.68;3702742;78;44060;-20
2020/12/25 06:55:17;;;;;;;5.57;1.73;;;;;;;1.17;100.00;98338.87;3711987;77;44012;-20
2020/12/25 07:00:24;;;;;;;4.43;1.73;;;;;;;1.18;100.00;98337.92;3648586;78;43117;-20
2020/12/25 07:05:34;;;;;;;3.27;1.73;;;;;;;1.08;100.00;98347.46;3617708;80;43720;-20
2020/12/25 07:10:43;;;;;;;4.07;1.50;;;;;;;1.17;100.00;98352.63;3619116;80;44378;-20
2020/12/25 07:15:49;;;;;;;3.50;1.63;;;;;;;1.08;100.00;98353.60;3605941;80;43996;-20
2020/12/25 07:20:59;;;;;;;2.80;1.50;;;;;;;1.08;100.00;98371.34;3618169;80;43752;-20
2020/12/25 07:26:06;;;;;;;2.10;1.60;;;;;;;1.04;100.00;98372.48;3614514;80;44023;-20
2020/12/25 07:31:14;;;;;;;3.73;1.30;;;;;;;1.08;100.00;98380.63;3621273;80;43402;-20
2020/12/25 07:36:19;;;;;;;2.00;1.20;;;;;;;1.04;100.00;98383.97;3631705;80;43343;-20
2020/12/25 07:41:25;;;;;;;1.10;1.00;;;;;;;0.96;100.00;98402.66;3619560;80;44057;-20
2020/12/25 07:46:32;;;;;;;4.93;1.40;;;;;;;1.07;100.00;98403.64;3547739;83;43413;-20
2020/12/25 07:51:38;;;;;;;2.17;1.03;;;;;;;1.04;100.00;98412.28;3683218;79;43673;-20
2020/12/25 07:56:45;;;;;;;1.53;1.10;;;;;;;1.00;100.00;98416.11;3688326;78;44950;-20
2020/12/25 08:01:50;;;;;;;2.07;1.30;;;;;;;1.05;100.00;98416.17;3747123;77;44652;-20
2020/12/25 08:06:56;;;;;;;1.50;1.10;;;;;;;1.03;100.00;98421.19;3759439;78;43291;-20
2020/12/25 08:12:03;;;;;;;1.23;1.10;;;;;;;1.07;100.00;98431.98;3756763;78;42552;-20
2020/12/25 08:17:10;;;;;;;3.23;1.10;;;;;;;1.07;100.00;98439.45;3746715;77;43435;-20
2020/12/25 08:22:16;;;;;;;1.63;1.23;;;;;;;1.05;100.00;98438.73;3749170;78;43389;-20
2020/12/25 08:27:21;;;;;;;1.07;0.90;;;;;;;1.06;100.00;98450.18;3759719;77;43703;-20
2020/12/25 08:32:29;;;;;;;3.03;2.00;;;;;;;1.11;100.00;98461.81;3756115;78;44017;-20
2020/12/25 08:37:34;;;;;;;3.43;1.23;;;;;;;1.13;100.00;98461.24;3759581;78;43681;-20
2020/12/25 08:42:40;;;;;;;2.90;1.20;;;;;;;1.13;100.00;98470.04;3755440;78;43166;-20
2020/12/25 08:48:09;;;;;;;2.27;1.50;;;;;;;1.09;100.00;98481.83;3774271;77;44527;-19
2020/12/25 08:53:17;;;;;;;2.97;1.20;;;;;;;1.11;100.00;98490.55;3756882;78;43334;-19
2020/12/25 08:58:24;;;;;;;2.20;1.30;;;;;;;1.14;100.00;98495.62;3752522;77;44511;-19
2020/12/25 09:03:40;;;;;;;2.90;1.20;;;;;;;1.07;100.00;98499.16;3758693;78;43968;-19
2020/12/25 09:08:47;;;;;;;3.27;1.20;;;;;;;1.06;100.00;98518.67;3756122;78;44448;-20
2020/12/25 09:13:54;;;;;;;1.57;1.00;;;;;;;1.12;100.00;98521.89;3758722;78;44059;-19
2020/12/25 09:18:59;;;;;;;2.17;1.30;;;;;;;1.08;100.00;98522.09;3757596;77;44698;-19
2020/12/25 09:24:05;;;;;;;3.30;1.40;;;;;;;1.12;100.00;98528.53;3651117;81;44201;-20
2020/12/25 09:29:11;;;;;;;2.43;1.30;;;;;;;1.12;100.00;98537.33;3647457;79;43356;-20
2020/12/25 09:34:17;;;;;;;1.60;1.30;;;;;;;1.19;100.00;98541.31;3771663;77;43979;-20
2020/12/25 09:39:22;;;;;;;2.20;1.40;;;;;;;1.17;100.00;98544.53;3778273;77;43440;-20
2020/12/25 09:44:28;;;;;;;2.77;1.50;;;;;;;1.20;100.00;98544.80;3757576;78;43721;-20
2020/12/25 09:49:34;;;;;;;4.10;1.30;;;;;;;1.25;100.00;98549.34;3746645;77;44003;-20
2020/12/25 09:54:39;;;;;;;2.63;1.40;;;;;;;1.25;100.00;98551.13;3754578;77;44085;-20
2020/12/25 09:59:46;;;;;;;2.27;1.30;;;;;;;1.24;100.00;98546.31;3695893;78;44083;-21
2020/12/25 10:04:52;;;;;;;4.60;1.40;;;;;;;1.31;100.00;98548.09;3684291;78;43478;-20
2020/12/25 10:09:57;;;;;;;1.20;1.10;;;;;;;1.33;100.00;98551.52;3641728;79;44071;-20
2020/12/25 10:15:04;;;;;;;1.97;1.20;;;;;;;1.30;100.00;98558.34;3679358;80;42927;-21
2020/12/25 10:20:10;;;;;;;1.40;1.27;;;;;;;1.35;100.00;98561.56;3698311;78;43499;-20
2020/12/25 10:25:16;;;;;;;1.73;1.40;;;;;;;1.28;100.00;98574.83;3657886;79;43691;-20
2020/12/25 10:30:21;;;;;;;3.07;1.30;;;;;;;1.17;100.00;98568.41;3705625;78;42825;-20
2020/12/25 10:35:27;;;;;;;2.73;1.40;;;;;;;1.05;100.00;98575.37;3758698;77;44552;-21
2020/12/25 10:40:33;;;;;;;2.67;2.10;;;;;;;1.01;100.00;98576.95;3686512;78;44104;-20
2020/12/25 10:50:47;;;;;;;2.93;2.10;;;;;;;1.09;100.00;98561.43;3997721;73;30573;-18
2020/12/25 10:55:52;;;;;;;4.07;2.33;;;;;;;1.04;100.00;98568.36;3923206;74;43194;-19
2020/12/25 11:00:59;;;;;;;2.90;2.00;;;;;;;1.09;100.00;98570.72;3944140;74;43324;-19
2020/12/25 11:06:05;;;;;;;10.47;5.50;;;;;;;1.16;100.00;98567.20;3956214;74;44000;-19
2020/12/25 11:11:11;;;;;;;16.43;10.43;;;;;;;1.23;100.00;98573.80;3959945;74;43518;-20
2020/12/25 11:16:23;;;;;;;4.83;3.83;;;;;;;1.26;100.00;98569.63;3939669;74;43712;-19
2020/12/25 11:21:30;;;;;;;3.07;2.00;;;;;;;1.32;100.00;98572.37;3952407;74;42904;-19
2020/12/25 11:26:37;;;;;;;12.03;6.80;;;;;;;1.40;100.00;98573.20;3950102;74;43717;-20
2020/12/25 11:31:45;;;;;;;21.33;13.70;;;;;;;1.36;100.00;98577.38;3942178;74;43737;-20
2020/12/25 11:36:51;;;;;;;5.53;3.20;;;;;;;1.41;100.00;98571.77;3959474;74;43444;-20
2020/12/25 11:41:56;;;;;;;5.27;4.23;;;;;;;1.37;100.00;98574.23;3956027;74;44459;-19
2020/12/25 11:47:02;;;;;;;3.13;2.70;;;;;;;1.42;100.00;98568.16;3928335;74;44090;-20
2020/12/25 11:52:09;;;;;;;6.07;3.00;;;;;;;1.44;100.00;98568.92;3896442;74;44031;-20
2020/12/25 11:57:15;;;;;;;4.57;3.37;;;;;;;1.44;100.00;98562.28;3898325;74;44066;-20
2020/12/25 12:02:20;;;;;;;3.73;3.07;;;;;;;1.41;100.00;98566.45;3911363;74;44170;-20
2020/12/25 12:07:27;;;;;;;5.33;3.20;;;;;;;1.44;100.00;98574.69;3907279;74;44124;-21
2020/12/25 12:12:33;;;;;;;4.00;3.13;;;;;;;1.32;100.00;98572.37;3910337;74;43386;-20
2020/12/25 12:17:40;;;;;;;5.53;3.97;;;;;;;1.38;100.00;98571.95;3900122;74;44009;-18
2020/12/25 12:22:46;;;;;;;4.63;3.40;;;;;;;1.36;100.00;98572.52;3911797;74;43971;-19
2020/12/25 12:27:52;;;;;;;3.90;2.77;;;;;;;1.27;100.00;98579.76;3916137;74;44119;-19
2020/12/25 12:32:58;;;;;;;5.07;2.47;;;;;;;1.27;100.00;98581.09;3913937;74;43903;-19
2020/12/25 12:38:05;;;;;;;3.20;1.90;;;;;;;1.39;100.00;98576.31;3885638;74;44817;-19
2020/12/25 12:43:11;;;;;;;2.37;2.17;;;;;;;1.45;100.00;98582.57;3911665;74;43947;-20
2020/12/25 12:48:18;;;;;;;3.50;1.60;;;;;;;1.44;100.00;98579.54;3920588;74;43186;-20
2020/12/25 12:53:24;;;;;;;1.57;1.40;;;;;;;1.47;100.00;98584.63;3937314;75;44007;-20
2020/12/25 12:58:33;;;;;;;1.87;1.33;;;;;;;1.41;100.00;98587.70;3945698;75;43327;-20
2020/12/25 13:03:39;;;;;;;3.03;2.13;;;;;;;1.37;100.00;98591.48;3952791;74;43409;-20
2020/12/25 13:08:46;;;;;;;3.60;2.90;;;;;;;1.19;100.00;98591.73;3947253;75;43491;-20
2020/12/25 13:13:52;;;;;;;6.00;2.77;;;;;;;1.26;100.00;98578.92;3950771;75;43717;-20
2020/12/25 13:18:57;;;;;;;3.60;3.00;;;;;;;1.24;100.00;98588.78;3951712;75;44202;-20
2020/12/25 13:24:03;;;;;;;5.57;3.33;;;;;;;1.12;100.00;98590.89;3958530;75;43277;-20
2020/12/25 13:29:09;;;;;;;4.03;2.73;;;;;;;1.12;100.00;98585.09;3939115;75;44221;-20
2020/12/25 13:34:15;;;;;;;3.77;2.73;;;;;;;1.05;100.00;98583.79;3960912;75;44066;-20
2020/12/25 13:39:20;;;;;;;3.50;2.37;;;;;;;1.14;100.00;98585.02;3939335;74;43640;-20
2020/12/25 13:44:26;;;;;;;4.80;2.53;;;;;;;1.18;100.00;98599.31;3960307;75;44081;-20
2020/12/25 13:49:33;;;;;;;3.57;2.63;;;;;;;1.06;100.00;98606.72;3947327;74;44007;-19
2020/12/25 13:54:39;;;;;;;3.30;2.40;;;;;;;1.10;100.00;98598.09;3975849;74;44108;-19
2020/12/25 13:59:45;;;;;;;4.13;2.80;;;;;;;1.07;100.00;98595.16;3972414;74;44087;-18
2020/12/25 14:04:51;;;;;;;5.67;3.77;;;;;;;1.13;100.00;98609.35;3975012;74;42933;-19
2020/12/25 14:09:57;;;;;;;3.23;2.27;;;;;;;1.34;100.00;98612.45;3967705;74;44071;-18
2020/12/25 14:15:07;;;;;;;4.33;3.17;;;;;;;1.25;100.00;98622.34;3974045;74;44048;-20
2020/12/25 14:20:14;;;;;;;5.30;2.53;;;;;;;1.27;100.00;98623.09;3973973;73;43733;-19
2020/12/25 14:25:19;;;;;;;2.33;1.73;;;;;;;1.02;100.00;98635.70;3975003;74;44408;-20
2020/12/25 14:30:27;;;;;;;3.20;1.50;;;;;;;1.12;100.00;98624.89;3957358;74;43721;-20
2020/12/25 14:35:35;;;;;;;3.07;1.63;;;;;;;1.06;100.00;98629.27;3973397;74;43242;-20
2020/12/25 14:40:41;;;;;;;3.80;1.83;;;;;;;0.94;100.00;98628.25;3972609;74;43337;-19
2020/12/25 14:45:48;;;;;;;1.83;1.17;;;;;;;1.08;100.00;98636.67;3977823;74;42886;-19
2020/12/25 14:50:54;;;;;;;1.53;1.10;;;;;;;1.07;100.00;98637.62;3936303;74;43712;-19
2020/12/25 14:56:02;;;;;;;2.33;1.17;;;;;;;1.03;100.00;98659.97;3920454;75;44027;-20
2020/12/25 15:01:07;;;;;;;2.67;1.20;;;;;;;0.98;100.00;98668.70;3939391;75;44058;-19
2020/12/25 15:06:13;;;;;;;3.53;1.30;;;;;;;0.90;97.45;98678.45;3937117;75;43467;-19
2020/12/25 15:11:22;;;;;;;2.47;1.47;;;;;;;0.84;100.00;98678.36;3934331;74;43627;-20
2020/12/25 15:16:28;;;;;;;1.80;1.20;;;;;;;0.80;97.16;98691.41;3929899;75;44073;-21
2020/12/25 15:21:33;;;;;;;3.80;2.80;;;;;;;0.89;100.00;98690.84;3922751;75;43763;-21
2020/12/25 15:26:39;;;;;;;2.80;1.83;;;;;;;0.83;100.00;98699.19;3942888;75;43721;-21
2020/12/25 15:31:45;;;;;;;5.50;4.10;;;;;;;0.92;100.00;98704.42;3915549;75;43358;-21
2020/12/25 15:36:59;;;;;;;1.33;1.00;;;;;;;0.85;98.39;98711.02;3916444;75;44055;-20
2020/12/25 15:42:04;;;;;;;4.07;1.10;;;;;;;0.88;100.00;98710.84;3772261;78;44088;-20
2020/12/25 15:47:09;;;;;;;1.70;1.20;;;;;;;0.85;95.55;98711.89;3909431;74;43689;-20
2020/12/25 15:52:15;;;;;;;2.83;1.20;;;;;;;0.94;100.00;98721.56;3917465;74;44056;-20
2020/12/25 15:57:21;;;;;;;2.93;1.30;;;;;;;0.90;100.00;98719.57;3960679;74;44586;-19
2020/12/25 16:02:27;;;;;;;2.27;1.70;;;;;;;0.95;100.00;98736.53;3953828;74;44558;-19
2020/12/25 16:07:33;;;;;;;3.27;1.20;;;;;;;0.85;100.00;98737.09;3939825;74;42992;-19
2020/12/25 16:12:39;;;;;;;2.50;1.23;;;;;;;0.77;100.00;98736.67;3955180;74;43627;-19
2020/12/25 16:17:45;;;;;;;2.10;1.30;;;;;;;0.80;100.00;98740.97;3927661;74;43270;-18
2020/12/25 16:22:51;;;;;;;5.20;1.27;;;;;;;0.75;100.00;98745.22;3925501;74;44018;-19
2020/12/25 16:27:57;;;;;;;2.57;1.40;;;;;;;0.72;100.00;98742.74;3956140;74;44079;-19
2020/12/25 16:33:03;;;;;;;1.77;1.30;;;;;;;0.71;100.00;98756.45;3964060;74;43412;-19
2020/12/25 16:38:09;;;;;;;2.80;1.37;;;;;;;0.65;100.00;98751.53;3956217;74;43263;-18
2020/12/25 16:43:14;;;;;;;2.20;1.20;;;;;;;0.70;100.00;98753.45;3947643;74;44684;-18
2020/12/25 16:48:20;;;;;;;2.73;1.50;;;;;;;0.65;100.00;98750.69;3948809;74;43088;-19
2020/12/25 16:53:26;;;;;;;3.13;1.70;;;;;;;0.56;100.00;98759.55;3950051;74;43423;-19
2020/12/25 16:58:31;;;;;;;2.97;1.70;;;;;;;0.65;100.00;98750.69;3913072;74;44208;-19
2020/12/25 17:03:37;;;;;;;3.97;2.50;;;;;;;0.57;100.00;98758.61;3916330;74;44732;-18
2020/12/25 17:08:43;;;;;;;4.00;2.50;;;;;;;0.53;100.00;98762.37;3939804;74;43721;-19
2020/12/25 17:13:50;;;;;;;4.07;2.60;;;;;;;0.51;100.00;98765.61;3960442;74;44505;-19
2020/12/25 17:18:56;;;;;;;6.80;2.30;;;;;;;0.50;100.00;98774.50;3958527;74;44506;-19
2020/12/25 17:24:02;;;;;;;4.67;2.83;;;;;;;0.48;100.00;98779.03;3951354;74;44602;-19
2020/12/25 17:29:09;;;;;;;5.47;2.40;;;;;;;0.50;100.00;98785.11;3961029;74;43389;-19
2020/12/25 17:34:15;;;;;;;4.43;2.57;;;;;;;0.47;100.00;98780.45;3954617;74;43666;-19
2020/12/25 17:39:21;;;;;;;4.73;2.50;;;;;;;0.48;100.00;98786.98;3959345;74;44078;-19
2020/12/25 17:44:27;;;;;;;4.37;2.70;;;;;;;0.48;100.00;98786.98;3946819;74;44735;-19
2020/12/25 17:49:36;;;;;;;2.70;2.17;;;;;;;0.51;100.00;98788.59;3936251;74;43677;-19
2020/12/25 17:54:42;;;;;;;5.60;2.40;;;;;;;0.56;100.00;98789.20;3947679;74;44057;-19
2020/12/25 17:59:47;;;;;;;3.80;2.43;;;;;;;0.50;100.00;98789.08;3942315;74;43407;-19
2020/12/25 18:04:53;;;;;;;6.07;5.47;;;;;;;0.52;100.00;98787.66;3977449;74;43892;-20
2020/12/25 18:09:59;;;;;;;9.60;4.77;;;;;;;0.53;100.00;98791.53;3951315;74;43440;-20
2020/12/25 18:15:06;;;;;;;5.67;3.80;;;;;;;0.48;100.00;98804.22;3966154;74;44614;-20
2020/12/25 18:20:12;;;;;;;11.90;9.37;;;;;;;0.48;100.00;98804.22;3936444;74;44039;-20
2020/12/25 18:25:18;;;;;;;4.93;3.23;;;;;;;0.45;100.00;98813.66;3954228;74;42964;-20
2020/12/25 18:30:23;;;;;;;4.60;2.10;;;;;;;0.48;100.00;98821.45;3966114;74;43999;-20
2020/12/25 18:35:29;;;;;;;5.03;2.63;;;;;;;0.49;100.00;98824.48;3966974;73;44051;-20
2020/12/25 18:40:36;;;;;;;6.70;2.20;;;;;;;0.48;100.00;98822.77;3948166;74;44702;-19
2020/12/25 18:45:41;;;;;;;3.97;2.60;;;;;;;0.48;100.00;98816.59;3961385;73;44254;-20
2020/12/25 18:50:47;;;;;;;6.93;2.50;;;;;;;0.45;100.00;98813.20;3919963;74;44502;-19
2020/12/25 18:55:53;;;;;;;4.60;2.43;;;;;;;0.44;100.00;98824.75;3880376;76;44058;-20
2020/12/25 19:00:59;;;;;;;5.23;2.67;;;;;;;0.37;100.00;98824.70;3760079;75;43979;-20
2020/12/25 19:06:05;;;;;;;4.00;2.70;;;;;;;0.33;100.00;98824.95;3660908;79;43702;-20
2020/12/25 19:11:10;;;;;;;5.20;2.10;;;;;;;0.34;100.00;98820.92;3674079;79;43963;-18
2020/12/25 19:16:16;;;;;;;7.37;2.57;;;;;;;0.28;100.00;98812.84;3660993;79;43715;-18
2020/12/25 19:21:22;;;;;;;5.33;2.40;;;;;;;0.28;100.00;98806.67;3648444;79;43701;-20
2020/12/25 19:26:31;;;;;;;6.10;2.60;;;;;;;0.21;100.00;98806.64;3661355;78;43673;-18
2020/12/25 19:31:38;;;;;;;5.67;2.30;;;;;;;0.15;100.00;98811.81;3661974;79;44428;-18
2020/12/25 19:36:46;;;;;;;5.77;2.60;;;;;;;0.07;100.00;98811.37;3656448;79;44040;-18
2020/12/25 19:41:53;;;;;;;15.13;10.13;;;;;;;0.05;100.00;98817.25;3673383;79;44168;-18
2020/12/25 19:46:58;;;;;;;4.30;3.13;;;;;;;0.06;100.00;98832.20;3650442;79;42952;-18
2020/12/25 19:52:05;;;;;;;5.03;2.60;;;;;;;0.06;100.00;98833.53;3654237;78;44009;-18
2020/12/25 19:57:11;;;;;;;4.33;2.20;;;;;;;0.06;100.00;98829.55;3732912;78;42762;-18
2020/12/25 20:02:19;;;;;;;6.33;2.43;;;;;;;0.08;100.00;98835.14;3734891;78;43286;-18
2020/12/25 20:07:27;;;;;;;4.40;2.37;;;;;;;0.04;100.00;98841.55;3601941;81;43321;-18
2020/12/25 20:12:34;;;;;;;3.47;2.30;;;;;;;0.04;100.00;98840.70;3621158;81;43041;-18
2020/12/25 20:17:40;;;;;;;5.63;2.53;;;;;;;0.06;100.00;98847.62;3734364;78;43356;-19
2020/12/25 20:22:46;;;;;;;4.57;2.57;;;;;;;0.07;100.00;98851.98;3664045;79;43744;-19
2020/12/25 20:27:52;;;;;;;5.80;2.50;;;;;;;0.07;100.00;98847.13;3734928;78;44117;-18
2020/12/25 20:33:00;;;;;;;3.57;2.33;;;;;;;0.06;100.00;98853.40;3723311;78;43445;-18
2020/12/25 20:38:07;;;;;;;5.60;2.33;;;;;;;0.09;100.00;98852.75;3769425;77;43245;-18
2020/12/25 20:43:13;;;;;;;3.47;2.30;;;;;;;0.09;100.00;98860.70;3668100;79;43658;-19
2020/12/25 20:48:19;;;;;;;4.63;2.20;;;;;;;0.02;100.00;98864.61;3739111;78;43301;-18
2020/12/25 20:53:25;;;;;;;4.57;2.83;;;;;;;0.04;100.00;98865.87;3729637;78;43466;-18
2020/12/25 20:58:31;;;;;;;4.63;2.50;;;;;;;0.04;100.00;98876.46;3740626;78;43321;-18
2020/12/25 21:03:38;;;;;;;6.17;2.50;;;;;;;-0.02;100.00;98876.33;3729821;78;44541;-18
2020/12/25 21:08:45;;;;;;;5.67;2.50;;;;;;;0.02;100.00;98874.36;3736232;78;43994;-18
2020/12/25 21:13:50;;;;;;;6.23;3.20;;;;;;;0.05;100.00;98877.69;3725280;78;44188;-18
2020/12/25 21:18:57;;;;;;;4.73;2.80;;;;;;;0.04;100.00;98880.44;3718537;78;44033;-18
2020/12/25 21:24:03;;;;;;;5.17;2.93;;;;;;;0.00;100.00;98893.00;3716744;78;43341;-19
2020/12/25 21:29:10;;;;;;;5.57;2.80;;;;;;;0.01;100.00;98888.06;3733799;77;43652;-18
2020/12/25 21:34:19;;;;;;;5.77;3.00;;;;;;;0.04;100.00;98876.46;3715113;78;44098;-19
2020/12/25 21:39:25;;;;;;;6.03;2.80;;;;;;;0.04;100.00;98883.93;3750995;78;43401;-19
2020/12/25 21:44:32;;;;;;;7.57;2.90;;;;;;;-0.01;100.00;98896.09;3712242;78;43641;-17
2020/12/25 21:49:38;;;;;;;5.40;2.60;;;;;;;-0.07;100.00;98892.92;3739821;78;44402;-18
2020/12/25 21:54:44;;;;;;;5.57;2.80;;;;;;;-0.20;100.00;98904.66;3704406;78;43707;-18
2020/12/25 21:59:50;;;;;;;6.37;2.27;;;;;;;-0.24;100.00;98905.74;3723740;78;44020;-18
2020/12/25 22:04:57;;;;;;;4.10;2.63;;;;;;;-0.29;100.00;98901.17;3714383;78;43035;-18
2020/12/25 22:10:03;;;;;;;5.00;2.37;;;;;;;-0.40;100.00;98904.37;3731335;78;43324;-18
2020/12/25 22:15:09;;;;;;;7.57;2.77;;;;;;;-0.49;100.00;98899.08;3736950;78;43693;-19
2020/12/25 22:20:17;;;;;;;3.77;2.73;;;;;;;-0.60;100.00;98908.04;3738887;78;43715;-18
2020/12/25 22:25:23;;;;;;;6.83;3.00;;;;;;;-0.67;100.00;98905.73;3732996;78;44003;-18
2020/12/25 22:30:29;;;;;;;6.00;2.90;;;;;;;-0.77;100.00;98907.12;3745543;78;43435;-18
2020/12/25 22:35:35;;;;;;;5.57;3.20;;;;;;;-0.85;100.00;98896.93;3734796;78;43939;-18
2020/12/25 22:40:43;;;;;;;5.17;3.43;;;;;;;-0.97;100.00;98886.48;3712063;78;43081;-18
2020/12/25 22:45:51;;;;;;;4.83;3.00;;;;;;;-0.96;100.00;98888.20;3725601;78;43448;-18
2020/12/25 22:50:57;;;;;;;6.73;3.63;;;;;;;-0.97;100.00;98894.42;3710008;78;43373;-18
2020/12/25 22:56:04;;;;;;;6.40;3.77;;;;;;;-0.98;100.00;98890.54;3710581;78;44660;-18
2020/12/25 23:01:10;;;;;;;5.93;3.30;;;;;;;-0.98;100.00;98890.06;3693315;78;44578;-18
2020/12/25 23:06:17;;;;;;;6.73;4.00;;;;;;;-0.99;100.00;98892.80;3690313;78;43576;-18
2020/12/25 23:11:23;;;;;;;7.13;3.57;;;;;;;-1.02;100.00;98886.33;3687680;79;44824;-17
2020/12/25 23:16:29;;;;;;;7.70;3.63;;;;;;;-1.06;100.00;98882.98;3589389;81;43971;-16
2020/12/25 23:21:35;;;;;;;6.00;2.93;;;;;;;-1.07;100.00;98885.72;3600879;81;44556;-16
2020/12/25 23:26:42;;;;;;;6.37;3.53;;;;;;;-1.16;100.00;98885.70;3719190;78;44034;-16
2020/12/25 23:31:48;;;;;;;4.90;2.90;;;;;;;-1.16;100.00;98880.41;3646891;79;43722;-16
2020/12/25 23:36:54;;;;;;;5.83;2.77;;;;;;;-1.22;100.00;98880.70;3626326;81;43270;-16
2020/12/25 23:42:03;;;;;;;4.50;2.93;;;;;;;-1.23;100.00;98876.38;3599690;82;44496;-16
2020/12/25 23:47:10;;;;;;;6.77;3.43;;;;;;;-1.34;100.00;98886.98;3588071;81;44062;-16
2020/12/25 23:52:16;;;;;;;5.20;3.53;;;;;;;-1.38;100.00;98874.86;3711098;78;44000;-16
2020/12/25 23:57:22;;;;;;;5.00;2.83;;;;;;;-1.42;100.00;98879.89;3731925;77;44025;-16
